createdAt,value
2023-03-22T00:02:13.850Z,20.30
2023-03-22T00:04:42.912Z,20.30
2023-03-22T00:07:09.671Z,20.30
2023-03-22T00:09:36.579Z,20.40
2023-03-22T00:12:03.572Z,20.30
2023-03-22T00:14:30.331Z,20.30
2023-03-22T00:16:57.133Z,20.30
2023-03-22T00:19:23.884Z,20.30
2023-03-22T00:21:51.389Z,20.30
2023-03-22T00:24:18.224Z,20.30
2023-03-22T00:26:47.187Z,20.30
2023-03-22T00:29:14.381Z,20.30
2023-03-22T00:31:41.631Z,20.30
2023-03-22T00:34:08.549Z,20.30
2023-03-22T00:36:37.776Z,20.30
2023-03-22T00:39:04.499Z,20.30
2023-03-22T00:41:31.181Z,20.30
2023-03-22T00:43:57.891Z,20.30
2023-03-22T00:46:24.679Z,20.30
2023-03-22T00:48:51.408Z,20.30
2023-03-22T00:51:18.191Z,20.30
2023-03-22T00:53:45.228Z,20.30
2023-03-22T00:56:15.860Z,20.30
2023-03-22T00:58:47.938Z,20.30
2023-03-22T01:01:15.270Z,20.30
2023-03-22T01:03:43.495Z,20.30
2023-03-22T01:06:13.699Z,20.30
2023-03-22T01:08:40.488Z,20.30
2023-03-22T01:11:08.592Z,20.30
2023-03-22T01:13:37.689Z,20.30
2023-03-22T01:16:06.078Z,20.30
2023-03-22T01:18:34.521Z,20.30
2023-03-22T01:21:01.857Z,20.30
2023-03-22T01:23:28.690Z,20.30
2023-03-22T01:25:55.358Z,20.30
2023-03-22T01:28:22.158Z,20.30
2023-03-22T01:30:49.972Z,20.30
2023-03-22T01:33:16.819Z,20.30
2023-03-22T01:35:43.473Z,20.30
2023-03-22T01:38:10.502Z,20.30
2023-03-22T01:40:44.484Z,20.30
2023-03-22T01:43:17.069Z,20.30
2023-03-22T01:45:48.008Z,20.30
2023-03-22T01:48:34.572Z,20.30
2023-03-22T01:51:07.738Z,20.30
2023-03-22T01:53:54.646Z,20.30
2023-03-22T01:56:24.645Z,20.30
2023-03-22T01:58:54.921Z,20.30
2023-03-22T02:01:27.826Z,20.30
2023-03-22T02:03:58.515Z,20.30
2023-03-22T02:06:27.002Z,20.30
2023-03-22T02:09:01.074Z,20.30
2023-03-22T02:11:33.335Z,20.30
2023-03-22T02:14:12.836Z,20.30
2023-03-22T02:17:38.566Z,20.30
2023-03-22T02:20:32.162Z,20.30
2023-03-22T02:23:27.163Z,20.30
2023-03-22T02:26:12.266Z,20.30
2023-03-22T02:28:50.788Z,20.30
2023-03-22T02:31:25.433Z,20.30
2023-03-22T02:34:15.518Z,20.30
2023-03-22T02:37:17.343Z,20.30
2023-03-22T02:40:17.614Z,20.30
2023-03-22T02:43:15.442Z,20.30
2023-03-22T02:45:48.187Z,20.30
2023-03-22T02:48:30.254Z,20.30
2023-03-22T02:51:03.796Z,20.30
2023-03-22T02:53:41.797Z,20.30
2023-03-22T02:56:18.999Z,20.30
2023-03-22T02:58:51.113Z,20.30
2023-03-22T03:01:28.224Z,20.30
2023-03-22T03:03:59.785Z,20.30
2023-03-22T03:06:32.020Z,20.30
2023-03-22T03:09:02.716Z,20.30
2023-03-22T03:11:30.449Z,20.30
2023-03-22T03:13:58.276Z,20.30
2023-03-22T03:16:29.296Z,20.30
2023-03-22T03:19:24.022Z,20.30
2023-03-22T03:22:19.335Z,20.30
2023-03-22T03:24:57.192Z,20.30
2023-03-22T03:27:32.597Z,20.30
2023-03-22T03:30:13.390Z,20.30
2023-03-22T03:32:59.167Z,20.30
2023-03-22T03:35:32.485Z,20.30
2023-03-22T03:38:09.910Z,20.30
2023-03-22T03:40:50.695Z,20.30
2023-03-22T03:43:19.111Z,20.30
2023-03-22T03:45:46.050Z,20.30
2023-03-22T03:48:21.110Z,20.30
2023-03-22T03:50:52.022Z,20.30
2023-03-22T03:53:19.017Z,20.30
2023-03-22T03:55:46.181Z,20.30
2023-03-22T03:58:16.035Z,20.30
2023-03-22T04:00:45.977Z,20.30
2023-03-22T04:03:41.499Z,20.20
2023-03-22T04:06:11.003Z,20.30
2023-03-22T04:08:41.359Z,20.30
2023-03-22T04:11:08.751Z,20.30
2023-03-22T04:13:36.026Z,20.30
2023-03-22T04:16:07.320Z,20.30
2023-03-22T04:18:36.995Z,20.30
2023-03-22T04:21:07.628Z,20.20
2023-03-22T04:23:46.577Z,20.20
2023-03-22T04:26:13.653Z,20.30
2023-03-22T04:29:03.568Z,20.30
2023-03-22T04:31:32.782Z,20.20
2023-03-22T04:34:06.734Z,20.20
2023-03-22T04:36:49.714Z,20.30
2023-03-22T04:39:23.209Z,20.30
2023-03-22T04:42:00.726Z,20.30
2023-03-22T04:44:27.788Z,20.30
2023-03-22T04:46:54.576Z,20.30
2023-03-22T04:49:21.269Z,20.30
2023-03-22T04:51:48.062Z,20.30
2023-03-22T04:54:35.277Z,20.30
2023-03-22T04:57:03.311Z,20.30
2023-03-22T04:59:36.129Z,20.30
2023-03-22T05:02:03.045Z,20.30
2023-03-22T05:04:37.320Z,20.30
2023-03-22T05:07:12.636Z,20.20
2023-03-22T05:09:48.294Z,20.30
2023-03-22T05:12:17.013Z,20.30
2023-03-22T05:15:07.124Z,20.30
2023-03-22T05:17:37.550Z,20.30
2023-03-22T05:20:10.135Z,20.30
2023-03-22T05:22:40.706Z,20.30
2023-03-22T05:25:10.485Z,20.30
2023-03-22T05:27:38.969Z,20.30
2023-03-22T05:30:29.775Z,20.30
2023-03-22T05:33:03.973Z,20.30
2023-03-22T05:35:37.092Z,20.30
2023-03-22T05:38:04.507Z,20.30
2023-03-22T05:40:34.095Z,20.30
2023-03-22T05:43:01.023Z,20.30
2023-03-22T05:45:28.572Z,20.30
2023-03-22T05:48:05.007Z,20.30
2023-03-22T05:50:32.499Z,20.30
2023-03-22T05:53:00.268Z,20.30
2023-03-22T05:55:47.251Z,20.30
2023-03-22T05:58:19.328Z,20.30
2023-03-22T06:00:51.353Z,20.30
2023-03-22T06:03:20.757Z,20.20
2023-03-22T06:06:10.641Z,20.30
2023-03-22T06:09:07.257Z,20.20
2023-03-22T06:11:42.676Z,20.20
2023-03-22T06:14:09.566Z,20.30
2023-03-22T06:17:02.558Z,20.20
2023-03-22T06:19:29.647Z,20.20
2023-03-22T06:21:56.637Z,20.30
2023-03-22T06:24:25.975Z,20.20
2023-03-22T06:26:52.670Z,20.30
2023-03-22T06:29:19.750Z,20.30
2023-03-22T06:31:47.811Z,20.20
2023-03-22T06:34:14.532Z,20.30
2023-03-22T06:36:42.752Z,20.20
2023-03-22T06:39:32.289Z,20.30
2023-03-22T06:41:58.961Z,20.30
2023-03-22T06:44:26.154Z,20.30
2023-03-22T06:46:52.815Z,20.30
2023-03-22T06:49:42.466Z,20.30
2023-03-22T06:52:14.657Z,20.30
2023-03-22T06:54:41.829Z,20.40
2023-03-22T06:57:09.970Z,20.40
2023-03-22T06:59:36.646Z,20.40
2023-03-22T07:02:03.927Z,20.40
2023-03-22T07:04:30.959Z,20.40
2023-03-22T07:06:57.670Z,20.40
2023-03-22T07:09:27.207Z,20.40
2023-03-22T07:11:57.449Z,20.40
2023-03-22T07:14:24.260Z,20.40
2023-03-22T07:17:02.325Z,20.40
2023-03-22T07:19:31.823Z,20.40
2023-03-22T07:22:02.185Z,20.40
2023-03-22T07:24:28.945Z,20.40
2023-03-22T07:26:55.623Z,20.40
2023-03-22T07:29:26.363Z,20.50
2023-03-22T07:31:53.322Z,20.50
2023-03-22T07:34:24.253Z,20.50
2023-03-22T07:37:04.019Z,20.50
2023-03-22T07:39:31.741Z,20.50
2023-03-22T07:41:58.749Z,20.50
2023-03-22T07:44:25.887Z,20.60
2023-03-22T07:47:11.193Z,20.60
2023-03-22T07:49:44.413Z,20.60
2023-03-22T07:52:18.083Z,20.60
2023-03-22T07:54:44.786Z,20.70
2023-03-22T07:57:12.800Z,20.60
2023-03-22T07:59:56.567Z,20.70
2023-03-22T08:02:26.178Z,20.70
2023-03-22T08:04:56.614Z,20.70
2023-03-22T08:07:51.423Z,20.80
2023-03-22T08:10:18.319Z,20.80
2023-03-22T08:12:45.024Z,20.80
2023-03-22T08:15:22.839Z,20.80
2023-03-22T08:17:50.296Z,20.80
2023-03-22T08:20:29.654Z,20.90
2023-03-22T08:23:01.130Z,20.90
2023-03-22T08:25:48.230Z,20.90
2023-03-22T08:28:15.896Z,21.00
2023-03-22T08:30:45.299Z,21.00
2023-03-22T08:33:12.585Z,21.10
2023-03-22T08:35:39.967Z,21.10
2023-03-22T08:38:06.916Z,21.10
2023-03-22T08:40:41.530Z,21.10
2023-03-22T08:43:08.303Z,21.10
2023-03-22T08:45:36.098Z,21.20
2023-03-22T08:48:09.203Z,21.20
2023-03-22T08:50:56.470Z,21.10
2023-03-22T08:53:30.540Z,21.20
2023-03-22T08:56:17.560Z,21.20
2023-03-22T08:59:00.696Z,21.20
2023-03-22T09:01:38.307Z,21.30
2023-03-22T09:04:10.160Z,21.20
2023-03-22T09:06:37.501Z,21.00
2023-03-22T09:09:04.298Z,20.70
2023-03-22T09:11:32.167Z,20.70
2023-03-22T09:13:58.853Z,20.80
2023-03-22T09:16:25.628Z,20.70
2023-03-22T09:18:52.354Z,20.70
2023-03-22T09:21:21.844Z,20.80
2023-03-22T09:23:56.679Z,20.80
2023-03-22T09:26:32.869Z,20.90
2023-03-22T09:28:59.883Z,20.90
2023-03-22T09:31:29.870Z,20.90
2023-03-22T09:34:16.207Z,21.00
2023-03-22T09:36:42.907Z,20.90
2023-03-22T09:39:13.082Z,20.90
2023-03-22T09:41:49.782Z,20.90
2023-03-22T09:44:40.467Z,20.80
2023-03-22T09:47:20.928Z,20.80
2023-03-22T09:49:54.238Z,21.10
2023-03-22T09:52:21.562Z,21.60
2023-03-22T09:54:50.001Z,21.90
2023-03-22T09:57:37.232Z,21.70
2023-03-22T10:00:12.433Z,21.60
2023-03-22T10:02:57.729Z,21.60
2023-03-22T10:05:57.332Z,21.30
2023-03-22T10:08:23.915Z,21.10
2023-03-22T10:10:52.633Z,20.90
2023-03-22T10:13:54.543Z,21.10
2023-03-22T10:16:33.386Z,21.30
2023-03-22T10:19:24.078Z,21.40
2023-03-22T10:21:52.591Z,21.40
2023-03-22T10:24:29.547Z,21.40
2023-03-22T10:26:56.332Z,21.50
2023-03-22T10:29:23.208Z,21.50
2023-03-22T10:31:50.173Z,21.50
2023-03-22T10:34:32.574Z,21.50
2023-03-22T10:37:04.088Z,21.50
2023-03-22T10:39:34.933Z,21.50
2023-03-22T10:42:13.951Z,21.50
2023-03-22T10:45:06.972Z,21.50
2023-03-22T10:47:44.094Z,21.50
2023-03-22T10:50:22.350Z,21.50
2023-03-22T10:53:21.761Z,21.40
2023-03-22T10:55:48.616Z,21.50
2023-03-22T10:58:18.049Z,21.50
2023-03-22T11:00:57.042Z,21.40
2023-03-22T11:03:28.788Z,21.50
2023-03-22T11:06:17.389Z,21.40
2023-03-22T11:08:46.829Z,21.40
2023-03-22T11:11:17.960Z,21.40
2023-03-22T11:13:54.376Z,21.40
2023-03-22T11:16:22.519Z,21.50
2023-03-22T11:18:49.334Z,21.40
2023-03-22T11:21:17.970Z,21.40
2023-03-22T11:24:05.538Z,21.40
2023-03-22T11:26:38.898Z,21.40
2023-03-22T11:29:16.686Z,21.40
2023-03-22T11:31:57.125Z,21.40
2023-03-22T11:34:27.811Z,21.40
2023-03-22T11:36:57.061Z,21.40
2023-03-22T11:39:29.223Z,21.30
2023-03-22T11:42:03.645Z,21.30
2023-03-22T11:44:34.786Z,21.40
2023-03-22T11:47:03.529Z,21.40
2023-03-22T11:49:35.539Z,21.40
2023-03-22T11:52:15.961Z,21.40
2023-03-22T11:54:44.183Z,21.30
2023-03-22T11:57:16.910Z,21.40
2023-03-22T12:00:07.998Z,21.40
2023-03-22T12:02:59.438Z,21.40
2023-03-22T12:05:31.869Z,21.40
2023-03-22T12:08:06.130Z,21.40
2023-03-22T12:10:43.580Z,21.40
2023-03-22T12:13:21.189Z,21.40
2023-03-22T12:15:55.349Z,21.40
2023-03-22T12:18:47.227Z,21.30
2023-03-22T12:21:14.095Z,21.40
2023-03-22T12:23:40.991Z,21.40
2023-03-22T12:26:15.948Z,21.30
2023-03-22T12:29:13.948Z,21.30
2023-03-22T12:32:03.864Z,21.30
2023-03-22T12:34:46.675Z,21.30
2023-03-22T12:37:22.253Z,21.30
2023-03-22T12:39:54.519Z,21.30
2023-03-22T12:42:51.816Z,21.30
2023-03-22T12:45:28.032Z,21.30
2023-03-22T12:48:04.465Z,21.30
2023-03-22T12:50:43.973Z,21.30
2023-03-22T12:53:16.575Z,21.40
2023-03-22T12:55:46.154Z,21.30
2023-03-22T12:58:19.962Z,21.20
2023-03-22T13:00:53.461Z,21.20
2023-03-22T13:03:30.044Z,21.20
2023-03-22T13:06:31.008Z,21.30
2023-03-22T13:09:16.849Z,21.30
2023-03-22T13:12:12.355Z,21.30
2023-03-22T13:14:57.541Z,21.30
2023-03-22T13:17:24.400Z,21.30
2023-03-22T13:20:07.521Z,21.30
2023-03-22T13:22:41.575Z,21.40
2023-03-22T13:25:12.884Z,21.30
2023-03-22T13:27:45.484Z,21.40
2023-03-22T13:30:25.841Z,21.40
2023-03-22T13:33:08.642Z,21.40
2023-03-22T13:35:44.119Z,21.40
2023-03-22T13:38:25.937Z,21.20
2023-03-22T13:41:03.429Z,21.20
2023-03-22T13:43:32.445Z,21.30
2023-03-22T13:46:36.601Z,21.30
2023-03-22T13:49:04.173Z,21.30
2023-03-22T13:51:34.173Z,21.30
2023-03-22T13:54:04.783Z,21.30
2023-03-22T13:57:00.802Z,21.40
2023-03-22T13:59:27.728Z,21.30
2023-03-22T14:01:58.275Z,21.30
2023-03-22T14:04:42.472Z,21.40
2023-03-22T14:07:22.908Z,21.40
2023-03-22T14:09:53.200Z,21.40
2023-03-22T14:12:52.759Z,21.40
2023-03-22T14:15:25.139Z,21.40
2023-03-22T14:18:02.735Z,21.40
2023-03-22T14:20:34.454Z,21.40
